Time;durP1;ratioP1;P1;durP2;ratioP2;P2;SDS_P1;SDS_P2;PMS_P1;PMS_P2;Temp;Humidity;BMP_temperature;BMP_pressure;BME280_temperature;BME280_humidity;BME280_pressure;Samples;Min_cycle;Max_cycle;Signal;HPM_P1;HPM_P2
2023/01/09 00:02:04;;;;;;;10.82;7.82;;;;;;;;;;5072070;28;20109;-59
2023/01/09 00:04:29;;;;;;;10.38;7.57;;;;;;;;;;5072073;28;20028;-60
2023/01/09 00:06:55;;;;;;;12.82;8.23;;;;;;;;;;5072450;28;20021;-59
2023/01/09 00:09:24;;;;;;;12.13;7.80;;;;;;;;;;5072359;28;20380;-59
2023/01/09 00:11:50;;;;;;;10.55;7.75;;;;;;;;;;5072015;28;20468;-58
2023/01/09 00:14:16;;;;;;;13.85;8.18;;;;;;;;;;5072055;28;20035;-60
2023/01/09 00:16:42;;;;;;;11.10;7.70;;;;;;;;;;5070462;28;20020;-59
2023/01/09 00:19:07;;;;;;;10.18;7.53;;;;;;;;;;5070708;28;20032;-59
2023/01/09 00:21:33;;;;;;;11.73;7.70;;;;;;;;;;5075738;28;20036;-61
2023/01/09 00:23:58;;;;;;;13.35;8.57;;;;;;;;;;5076186;28;20040;-59
2023/01/09 00:26:24;;;;;;;12.65;8.15;;;;;;;;;;5074613;28;20028;-59
2023/01/09 00:28:50;;;;;;;11.00;8.02;;;;;;;;;;5075772;28;20150;-66
2023/01/09 00:31:17;;;;;;;10.52;7.85;;;;;;;;;;5075712;28;20030;-65
2023/01/09 00:34:12;;;;;;;11.15;7.82;;;;;;;;;;5073298;28;20590;-56
2023/01/09 00:36:37;;;;;;;11.75;8.00;;;;;;;;;;5061219;28;20501;-56
2023/01/09 00:39:04;;;;;;;11.15;7.93;;;;;;;;;;5075255;28;20107;-58
2023/01/09 00:41:40;;;;;;;10.93;7.93;;;;;;;;;;5054549;28;20021;-57
2023/01/09 00:44:16;;;;;;;12.52;8.15;;;;;;;;;;5054050;28;20204;-56
2023/01/09 00:46:48;;;;;;;13.52;8.07;;;;;;;;;;5054686;28;20025;-59
2023/01/09 00:49:15;;;;;;;9.88;7.45;;;;;;;;;;5055524;28;20163;-59
2023/01/09 00:51:41;;;;;;;10.35;7.22;;;;;;;;;;5037570;28;20078;-59
2023/01/09 00:54:09;;;;;;;12.50;8.02;;;;;;;;;;5055627;28;20025;-58
2023/01/09 00:56:35;;;;;;;10.27;7.70;;;;;;;;;;5054450;28;20048;-57
2023/01/09 00:59:02;;;;;;;14.10;7.53;;;;;;;;;;5055215;28;20044;-58
2023/01/09 01:01:28;;;;;;;13.52;7.78;;;;;;;;;;5055245;28;20029;-58
2023/01/09 01:03:54;;;;;;;11.00;7.90;;;;;;;;;;5055212;28;20028;-57
2023/01/09 01:09:04;;;;;;;10.88;7.50;;;;;;;;;;5055195;28;20086;-58
2023/01/09 01:11:33;;;;;;;12.45;7.72;;;;;;;;;;5054923;28;20021;-60
2023/01/09 01:13:59;;;;;;;11.00;7.72;;;;;;;;;;5054952;28;20032;-59
2023/01/09 01:16:25;;;;;;;11.93;8.20;;;;;;;;;;5054922;28;20018;-57
2023/01/09 01:18:50;;;;;;;12.07;8.35;;;;;;;;;;5054761;28;20439;-59
2023/01/09 01:21:16;;;;;;;10.40;7.90;;;;;;;;;;5054840;28;20059;-58
2023/01/09 01:23:43;;;;;;;10.43;7.70;;;;;;;;;;5054813;28;20033;-58
2023/01/09 01:26:11;;;;;;;11.77;7.85;;;;;;;;;;5054865;28;20047;-59
2023/01/09 01:28:37;;;;;;;10.88;7.30;;;;;;;;;;5036871;28;20094;-58
2023/01/09 01:31:04;;;;;;;11.00;7.70;;;;;;;;;;5054059;28;20025;-59
2023/01/09 01:33:29;;;;;;;9.95;7.20;;;;;;;;;;5054413;28;20028;-58
2023/01/09 01:36:03;;;;;;;11.05;7.65;;;;;;;;;;5054594;28;20021;-59
2023/01/09 01:38:29;;;;;;;10.57;7.10;;;;;;;;;;5054402;28;20025;-58
2023/01/09 01:40:56;;;;;;;10.50;8.00;;;;;;;;;;5054435;28;20158;-59
2023/01/09 01:43:21;;;;;;;10.63;7.10;;;;;;;;;;5054245;28;20124;-59
2023/01/09 01:45:47;;;;;;;10.63;7.30;;;;;;;;;;5054254;28;20121;-57
2023/01/09 01:48:25;;;;;;;10.63;7.63;;;;;;;;;;5054480;28;20098;-59
2023/01/09 01:51:00;;;;;;;11.55;7.50;;;;;;;;;;5054287;28;20480;-58
2023/01/09 01:53:43;;;;;;;11.90;7.65;;;;;;;;;;5054511;28;20086;-58
2023/01/09 01:56:27;;;;;;;10.00;7.63;;;;;;;;;;5054218;28;20021;-59
2023/01/09 01:58:55;;;;;;;10.32;7.78;;;;;;;;;;5054033;28;20028;-59
2023/01/09 02:01:23;;;;;;;9.93;7.35;;;;;;;;;;5054306;28;20021;-59
2023/01/09 02:03:50;;;;;;;9.80;7.15;;;;;;;;;;5054023;28;20025;-58
2023/01/09 02:06:15;;;;;;;8.88;7.15;;;;;;;;;;5054024;28;20052;-59
2023/01/09 02:08:42;;;;;;;10.52;7.15;;;;;;;;;;5053847;28;20056;-59
2023/01/09 02:11:08;;;;;;;11.43;7.30;;;;;;;;;;5053927;28;20023;-59
2023/01/09 02:13:37;;;;;;;9.05;7.18;;;;;;;;;;5053758;28;20534;-59
2023/01/09 02:16:33;;;;;;;10.70;7.72;;;;;;;;;;5054301;28;20051;-58
2023/01/09 02:19:17;;;;;;;10.23;7.47;;;;;;;;;;5054623;28;20079;-58
2023/01/09 02:21:59;;;;;;;10.18;7.28;;;;;;;;;;5053643;28;20511;-60
2023/01/09 02:24:34;;;;;;;11.77;7.60;;;;;;;;;;5036278;28;20036;-59
2023/01/09 02:27:22;;;;;;;8.85;6.75;;;;;;;;;;5053561;28;20048;-58
2023/01/09 02:30:00;;;;;;;10.80;7.97;;;;;;;;;;5053862;28;20074;-56
2023/01/09 02:32:41;;;;;;;9.90;7.20;;;;;;;;;;5053662;28;20021;-59
2023/01/09 02:35:32;;;;;;;9.27;7.13;;;;;;;;;;5053450;28;20047;-57
2023/01/09 02:38:04;;;;;;;11.23;7.32;;;;;;;;;;5053422;28;20119;-57
2023/01/09 02:40:54;;;;;;;9.68;7.05;;;;;;;;;;5053605;28;20423;-59
2023/01/09 02:43:20;;;;;;;11.30;7.68;;;;;;;;;;5052897;28;20056;-58
2023/01/09 02:45:45;;;;;;;10.20;7.03;;;;;;;;;;5053476;28;20076;-59
2023/01/09 02:48:11;;;;;;;10.15;7.15;;;;;;;;;;5053240;28;20056;-58
2023/01/09 02:50:59;;;;;;;9.73;7.20;;;;;;;;;;5053104;28;20029;-58
2023/01/09 02:53:27;;;;;;;10.27;6.82;;;;;;;;;;5053416;28;20362;-58
2023/01/09 02:56:02;;;;;;;10.32;6.90;;;;;;;;;;5053073;28;20028;-57
2023/01/09 02:58:52;;;;;;;10.00;6.80;;;;;;;;;;5052932;28;20033;-56
2023/01/09 03:01:26;;;;;;;12.77;7.28;;;;;;;;;;5053477;28;20027;-58
2023/01/09 03:04:11;;;;;;;10.82;6.95;;;;;;;;;;5053176;28;20025;-58
2023/01/09 03:06:57;;;;;;;10.25;7.18;;;;;;;;;;5052938;28;20033;-58
2023/01/09 03:09:26;;;;;;;9.98;7.35;;;;;;;;;;5052978;28;20017;-57
2023/01/09 03:12:02;;;;;;;10.10;7.10;;;;;;;;;;5052803;28;20025;-59
2023/01/09 03:14:31;;;;;;;11.43;7.18;;;;;;;;;;5052866;28;20021;-58
2023/01/09 03:17:02;;;;;;;9.15;7.10;;;;;;;;;;5034739;28;20488;-58
2023/01/09 03:19:31;;;;;;;9.68;6.88;;;;;;;;;;5052624;28;20550;-55
2023/01/09 03:21:57;;;;;;;9.38;6.60;;;;;;;;;;5052632;28;20028;-57
2023/01/09 03:24:23;;;;;;;9.15;6.75;;;;;;;;;;5052578;28;20025;-59
2023/01/09 03:26:49;;;;;;;9.55;6.78;;;;;;;;;;5052506;28;20055;-59
2023/01/09 03:29:14;;;;;;;10.27;7.28;;;;;;;;;;5052516;28;20045;-56
2023/01/09 03:31:40;;;;;;;8.85;6.78;;;;;;;;;;5052707;28;20028;-56
2023/01/09 03:34:05;;;;;;;10.32;6.78;;;;;;;;;;5052747;28;20052;-57
2023/01/09 03:36:31;;;;;;;10.95;7.07;;;;;;;;;;5052607;28;20032;-57
2023/01/09 03:38:56;;;;;;;10.27;7.35;;;;;;;;;;5052299;28;20020;-59
2023/01/09 03:41:22;;;;;;;9.45;7.25;;;;;;;;;;5052606;28;20025;-57
2023/01/09 03:43:48;;;;;;;9.05;7.38;;;;;;;;;;5052080;28;20037;-56
2023/01/09 03:46:14;;;;;;;8.77;6.93;;;;;;;;;;5052771;28;20037;-58
2023/01/09 03:48:40;;;;;;;8.93;6.95;;;;;;;;;;5052319;28;20052;-57
2023/01/09 03:51:06;;;;;;;11.38;7.13;;;;;;;;;;5052188;28;20084;-58
2023/01/09 03:53:31;;;;;;;9.65;7.18;;;;;;;;;;5052170;28;20032;-60
2023/01/09 03:55:57;;;;;;;9.15;6.55;;;;;;;;;;5051899;28;20028;-61
2023/01/09 03:58:24;;;;;;;10.85;7.28;;;;;;;;;;5052190;28;20045;-59
2023/01/09 04:00:51;;;;;;;10.00;7.07;;;;;;;;;;5052209;28;20029;-57
2023/01/09 04:03:20;;;;;;;11.20;7.53;;;;;;;;;;5052418;28;20029;-58
2023/01/09 04:05:47;;;;;;;7.80;6.63;;;;;;;;;;5052102;28;20025;-57
2023/01/09 04:08:13;;;;;;;8.13;6.47;;;;;;;;;;5052390;28;20119;-58
2023/01/09 04:10:38;;;;;;;9.57;6.68;;;;;;;;;;5052374;28;20556;-58
2023/01/09 04:13:04;;;;;;;9.63;6.80;;;;;;;;;;5052348;28;20029;-59
2023/01/09 04:15:29;;;;;;;9.50;7.03;;;;;;;;;;5052289;28;20096;-58
2023/01/09 04:17:55;;;;;;;8.27;6.43;;;;;;;;;;5052257;28;20382;-59
2023/01/09 04:20:20;;;;;;;8.95;6.72;;;;;;;;;;5051927;28;20468;-58
2023/01/09 04:22:46;;;;;;;9.18;6.40;;;;;;;;;;5052005;28;20025;-58
2023/01/09 04:25:12;;;;;;;9.65;7.03;;;;;;;;;;5051841;28;20021;-64
2023/01/09 04:27:38;;;;;;;10.98;7.10;;;;;;;;;;5052140;28;20025;-59
2023/01/09 04:30:04;;;;;;;9.80;6.75;;;;;;;;;;5051885;28;20476;-59
2023/01/09 04:32:29;;;;;;;8.52;6.30;;;;;;;;;;5051867;28;20079;-59
2023/01/09 04:34:56;;;;;;;9.25;6.57;;;;;;;;;;5051892;28;20021;-58
2023/01/09 04:37:22;;;;;;;9.02;6.53;;;;;;;;;;5052117;28;20471;-57
2023/01/09 04:39:49;;;;;;;8.45;6.32;;;;;;;;;;5051700;28;20552;-58
2023/01/09 04:42:15;;;;;;;8.75;6.50;;;;;;;;;;5051855;28;20066;-58
2023/01/09 04:44:40;;;;;;;8.95;6.63;;;;;;;;;;5052011;28;20100;-58
2023/01/09 04:47:06;;;;;;;8.70;6.43;;;;;;;;;;5052014;28;20482;-56
2023/01/09 04:49:31;;;;;;;8.15;5.97;;;;;;;;;;5051613;28;20103;-57
2023/01/09 04:51:57;;;;;;;8.57;6.35;;;;;;;;;;5051716;28;20037;-57
2023/01/09 04:54:23;;;;;;;7.53;6.43;;;;;;;;;;5051708;28;20025;-58
2023/01/09 04:56:48;;;;;;;10.45;6.63;;;;;;;;;;5051644;28;20032;-58
2023/01/09 04:59:14;;;;;;;8.43;6.43;;;;;;;;;;5051526;28;20025;-57
2023/01/09 05:01:40;;;;;;;8.32;6.47;;;;;;;;;;5051643;28;20027;-57
2023/01/09 05:04:06;;;;;;;8.50;6.50;;;;;;;;;;5051524;28;20017;-58
2023/01/09 05:06:33;;;;;;;8.80;6.68;;;;;;;;;;5052097;28;20044;-56
2023/01/09 05:08:59;;;;;;;7.90;6.55;;;;;;;;;;5055143;28;20067;-59
2023/01/09 05:11:25;;;;;;;10.45;6.70;;;;;;;;;;5054974;28;20024;-59
2023/01/09 05:13:51;;;;;;;9.27;6.60;;;;;;;;;;5054976;28;20029;-58
2023/01/09 05:16:17;;;;;;;9.40;7.28;;;;;;;;;;5054918;28;20504;-59
2023/01/09 05:18:42;;;;;;;7.82;6.35;;;;;;;;;;5054789;28;20072;-59
2023/01/09 05:21:08;;;;;;;8.95;6.72;;;;;;;;;;5054857;28;20020;-57
2023/01/09 05:23:34;;;;;;;9.00;6.65;;;;;;;;;;5054852;28;20461;-57
2023/01/09 05:26:00;;;;;;;10.05;6.63;;;;;;;;;;5054978;28;20025;-59
2023/01/09 05:28:26;;;;;;;7.38;6.40;;;;;;;;;;5054762;28;20025;-59
2023/01/09 05:30:51;;;;;;;8.38;6.10;;;;;;;;;;5054589;28;20111;-57
2023/01/09 05:33:17;;;;;;;8.32;6.53;;;;;;;;;;5054870;28;20071;-56
2023/01/09 05:35:43;;;;;;;7.65;6.32;;;;;;;;;;5054589;28;20505;-57
2023/01/09 05:38:08;;;;;;;8.32;6.45;;;;;;;;;;5054851;28;20040;-59
2023/01/09 05:40:34;;;;;;;9.05;7.18;;;;;;;;;;5054375;28;20822;-57
2023/01/09 05:42:59;;;;;;;8.57;6.10;;;;;;;;;;5054537;28;20041;-58
2023/01/09 05:45:26;;;;;;;8.23;6.15;;;;;;;;;;5054269;28;20032;-60
2023/01/09 05:47:51;;;;;;;9.75;6.70;;;;;;;;;;5054352;28;20029;-58
2023/01/09 05:50:17;;;;;;;8.23;6.03;;;;;;;;;;5054266;28;20078;-59
2023/01/09 05:52:42;;;;;;;9.00;6.45;;;;;;;;;;5054243;28;20473;-58
2023/01/09 05:55:09;;;;;;;8.38;6.50;;;;;;;;;;5054260;28;20017;-58
2023/01/09 05:57:35;;;;;;;10.20;6.05;;;;;;;;;;5054486;28;20092;-59
2023/01/09 06:00:01;;;;;;;8.93;6.15;;;;;;;;;;5054073;28;20116;-59
2023/01/09 06:02:26;;;;;;;10.18;6.55;;;;;;;;;;5054010;28;20029;-58
2023/01/09 06:04:52;;;;;;;9.20;6.28;;;;;;;;;;5054363;28;20059;-58
2023/01/09 06:07:17;;;;;;;9.90;6.55;;;;;;;;;;5053950;28;20135;-56
2023/01/09 06:09:43;;;;;;;8.32;6.47;;;;;;;;;;5054067;28;20028;-57
2023/01/09 06:12:08;;;;;;;10.50;6.53;;;;;;;;;;5054123;28;20021;-59
2023/01/09 06:14:35;;;;;;;8.63;6.43;;;;;;;;;;5053857;28;20028;-55
2023/01/09 06:17:01;;;;;;;9.02;6.32;;;;;;;;;;5053704;28;20136;-56
2023/01/09 06:19:26;;;;;;;9.10;6.30;;;;;;;;;;5053418;28;20540;-56
2023/01/09 06:21:52;;;;;;;8.23;6.05;;;;;;;;;;5053672;28;20102;-59
2023/01/09 06:24:18;;;;;;;8.23;5.97;;;;;;;;;;5054051;28;20430;-58
2023/01/09 06:26:44;;;;;;;8.88;6.50;;;;;;;;;;5053561;28;20017;-57
2023/01/09 06:29:10;;;;;;;10.32;6.35;;;;;;;;;;5053498;28;20033;-57
2023/01/09 06:31:35;;;;;;;7.65;5.82;;;;;;;;;;5053434;28;20028;-57
2023/01/09 06:34:01;;;;;;;10.00;6.10;;;;;;;;;;5053660;28;20028;-57
2023/01/09 06:36:26;;;;;;;7.70;5.70;;;;;;;;;;5053333;28;20369;-57
2023/01/09 06:38:52;;;;;;;8.57;6.22;;;;;;;;;;5053282;28;20047;-57
2023/01/09 06:41:17;;;;;;;8.18;5.82;;;;;;;;;;5053211;28;20494;-54
2023/01/09 06:43:43;;;;;;;7.38;6.55;;;;;;;;;;5052868;28;20098;-56
2023/01/09 06:46:09;;;;;;;9.35;6.38;;;;;;;;;;5053083;28;20031;-57
2023/01/09 06:48:34;;;;;;;9.35;6.82;;;;;;;;;;5052965;28;20032;-57
2023/01/09 06:51:00;;;;;;;6.90;5.72;;;;;;;;;;5053114;28;20035;-57
2023/01/09 06:53:26;;;;;;;8.38;6.03;;;;;;;;;;5053054;28;20510;-56
2023/01/09 06:55:52;;;;;;;8.15;6.00;;;;;;;;;;5052975;28;20029;-61
2023/01/09 06:58:18;;;;;;;9.50;6.53;;;;;;;;;;5052932;28;20021;-52
2023/01/09 07:00:43;;;;;;;9.10;6.68;;;;;;;;;;5052915;28;20057;-55
2023/01/09 07:03:10;;;;;;;8.02;5.93;;;;;;;;;;5053045;28;20075;-63
2023/01/09 07:05:41;;;;;;;7.47;5.70;;;;;;;;;;5053110;28;20025;-63
2023/01/09 07:08:07;;;;;;;7.75;6.15;;;;;;;;;;5052723;28;20036;-55
2023/01/09 07:10:33;;;;;;;8.05;6.18;;;;;;;;;;5052759;28;20079;-57
2023/01/09 07:12:58;;;;;;;8.88;6.75;;;;;;;;;;5052563;28;20049;-51
2023/01/09 07:15:24;;;;;;;7.78;6.10;;;;;;;;;;5052640;28;20029;-54
2023/01/09 07:17:53;;;;;;;8.95;6.28;;;;;;;;;;5052597;28;20037;-64
2023/01/09 07:20:19;;;;;;;9.03;6.50;;;;;;;;;;5034721;28;20120;-55
2023/01/09 07:22:46;;;;;;;7.55;6.30;;;;;;;;;;5052760;28;20488;-58
2023/01/09 07:25:12;;;;;;;8.65;6.18;;;;;;;;;;5034753;28;20021;-56
2023/01/09 07:27:37;;;;;;;9.43;6.32;;;;;;;;;;5052393;28;20135;-57
2023/01/09 07:30:05;;;;;;;8.32;5.97;;;;;;;;;;5034184;28;20033;-57
2023/01/09 07:32:31;;;;;;;7.15;5.53;;;;;;;;;;5052311;28;20481;-57
2023/01/09 07:34:57;;;;;;;7.32;5.30;;;;;;;;;;5052592;28;20104;-58
2023/01/09 07:37:23;;;;;;;9.10;6.00;;;;;;;;;;5052228;28;20553;-59
2023/01/09 07:39:49;;;;;;;8.80;6.63;;;;;;;;;;5052306;28;20043;-58
2023/01/09 07:42:14;;;;;;;8.35;6.30;;;;;;;;;;5052107;28;20039;-57
2023/01/09 07:44:40;;;;;;;7.63;6.15;;;;;;;;;;5052259;28;20021;-57
2023/01/09 07:47:06;;;;;;;7.50;6.15;;;;;;;;;;5052215;28;20029;-64
2023/01/09 07:49:31;;;;;;;7.55;6.00;;;;;;;;;;5052261;28;20028;-56
2023/01/09 07:51:57;;;;;;;8.63;6.05;;;;;;;;;;5052163;28;20024;-54
2023/01/09 07:54:22;;;;;;;9.00;6.07;;;;;;;;;;5052152;28;20025;-61
2023/01/09 07:56:48;;;;;;;7.13;5.68;;;;;;;;;;5052118;28;20048;-57
2023/01/09 07:59:14;;;;;;;7.93;6.00;;;;;;;;;;5052201;28;20103;-60
2023/01/09 08:01:40;;;;;;;7.82;5.90;;;;;;;;;;5052067;28;20078;-57
2023/01/09 08:04:06;;;;;;;8.02;5.68;;;;;;;;;;5052062;28;20029;-56
2023/01/09 08:06:31;;;;;;;8.38;5.97;;;;;;;;;;5052029;28;20032;-57
2023/01/09 08:08:58;;;;;;;8.50;6.15;;;;;;;;;;5034214;28;20036;-57
2023/01/09 08:11:24;;;;;;;7.90;5.82;;;;;;;;;;5051852;28;20060;-58
2023/01/09 08:13:50;;;;;;;7.50;5.72;;;;;;;;;;5051961;28;20025;-58
2023/01/09 08:16:16;;;;;;;7.22;5.75;;;;;;;;;;5052266;28;20032;-58
2023/01/09 08:18:42;;;;;;;8.13;6.50;;;;;;;;;;5052222;28;20018;-59
2023/01/09 08:21:08;;;;;;;7.47;6.10;;;;;;;;;;5052108;28;20468;-58
2023/01/09 08:23:33;;;;;;;7.07;6.00;;;;;;;;;;5051882;28;20068;-58
2023/01/09 08:25:59;;;;;;;7.65;6.13;;;;;;;;;;5051775;28;20048;-58
2023/01/09 08:28:25;;;;;;;8.63;6.18;;;;;;;;;;5051895;28;20068;-58
2023/01/09 08:30:50;;;;;;;8.93;5.93;;;;;;;;;;5033978;28;20037;-59
2023/01/09 08:33:16;;;;;;;7.88;5.75;;;;;;;;;;5052139;28;20036;-58
2023/01/09 08:35:43;;;;;;;8.65;6.07;;;;;;;;;;5051790;28;20384;-55
2023/01/09 08:38:09;;;;;;;7.47;6.03;;;;;;;;;;5051663;28;20029;-57
2023/01/09 08:40:34;;;;;;;7.28;5.70;;;;;;;;;;5052184;28;20029;-58
2023/01/09 08:48:28;;;;;;;6.90;5.53;;;;;;;;;;5055741;28;20032;-58
2023/01/09 08:50:53;;;;;;;7.47;5.63;;;;;;;;;;5055046;28;20024;-57
2023/01/09 08:53:19;;;;;;;7.40;5.70;;;;;;;;;;5055227;28;20025;-58
2023/01/09 08:55:45;;;;;;;8.60;5.90;;;;;;;;;;5055379;28;20059;-58
2023/01/09 08:58:11;;;;;;;8.23;5.93;;;;;;;;;;5055242;28;20039;-58
2023/01/09 09:00:36;;;;;;;7.57;5.53;;;;;;;;;;5055112;28;20538;-58
2023/01/09 09:03:02;;;;;;;6.63;5.35;;;;;;;;;;5055218;28;20021;-58
2023/01/09 09:05:29;;;;;;;8.02;5.97;;;;;;;;;;5055306;28;20112;-57
2023/01/09 09:07:55;;;;;;;8.68;5.95;;;;;;;;;;5055201;28;20450;-58
2023/01/09 09:10:27;;;;;;;7.20;6.05;;;;;;;;;;5055084;28;20025;-57
2023/01/09 09:12:55;;;;;;;6.93;5.43;;;;;;;;;;5055049;28;20035;-58
2023/01/09 09:15:24;;;;;;;7.15;5.38;;;;;;;;;;5054929;28;20045;-60
2023/01/09 09:18:01;;;;;;;7.60;6.13;;;;;;;;;;5036962;28;20024;-56
2023/01/09 09:20:32;;;;;;;6.60;5.60;;;;;;;;;;5055022;28;20115;-58
2023/01/09 09:22:57;;;;;;;7.80;6.00;;;;;;;;;;5055018;28;20025;-58
2023/01/09 09:25:23;;;;;;;7.68;5.50;;;;;;;;;;5054916;28;20032;-58
2023/01/09 09:27:50;;;;;;;7.88;5.65;;;;;;;;;;5054938;28;20021;-58
2023/01/09 09:30:17;;;;;;;7.97;5.75;;;;;;;;;;5054734;28;20039;-58
2023/01/09 09:32:44;;;;;;;8.27;6.22;;;;;;;;;;5054537;28;20029;-58
2023/01/09 09:35:10;;;;;;;7.93;5.60;;;;;;;;;;5054545;28;20025;-59
2023/01/09 09:37:36;;;;;;;7.68;5.70;;;;;;;;;;5054508;28;20105;-56
2023/01/09 09:40:02;;;;;;;7.75;5.82;;;;;;;;;;5054802;28;20448;-59
2023/01/09 09:46:02;;;;;;;8.45;5.80;;;;;;;;;;5054568;28;20503;-57
2023/01/09 09:48:41;;;;;;;7.47;6.13;;;;;;;;;;5054247;28;20029;-57
2023/01/09 09:51:36;;;;;;;10.10;5.70;;;;;;;;;;5054556;28;20087;-57
2023/01/09 09:54:01;;;;;;;8.25;5.88;;;;;;;;;;5053288;28;20032;-58
2023/01/09 09:56:31;;;;;;;6.80;5.50;;;;;;;;;;5054152;28;20388;-58
2023/01/09 09:59:26;;;;;;;8.45;5.68;;;;;;;;;;5054190;28;20071;-58
2023/01/09 10:01:55;;;;;;;8.23;5.95;;;;;;;;;;5036465;28;20068;-57
2023/01/09 10:04:23;;;;;;;7.03;5.20;;;;;;;;;;5036155;28;20060;-58
2023/01/09 10:07:20;;;;;;;7.32;5.65;;;;;;;;;;5068660;28;20533;-61
2023/01/09 10:09:56;;;;;;;7.25;5.63;;;;;;;;;;5060623;28;20028;-57
2023/01/09 10:12:31;;;;;;;9.18;6.30;;;;;;;;;;5072426;28;20483;-58
2023/01/09 10:15:00;;;;;;;7.68;5.72;;;;;;;;;;5071761;28;20504;-58
2023/01/09 10:17:37;;;;;;;6.93;5.72;;;;;;;;;;5071773;28;20153;-64
2023/01/09 10:20:18;;;;;;;7.70;5.88;;;;;;;;;;5086825;28;20077;-59
2023/01/09 10:22:49;;;;;;;8.18;5.80;;;;;;;;;;5071540;28;20021;-63
2023/01/09 10:25:35;;;;;;;8.90;6.47;;;;;;;;;;5071257;28;20065;-57
2023/01/09 10:28:44;;;;;;;8.55;6.05;;;;;;;;;;5072398;28;20361;-58
2023/01/09 10:31:28;;;;;;;7.15;5.78;;;;;;;;;;5065510;28;20040;-66
2023/01/09 10:34:02;;;;;;;7.22;5.70;;;;;;;;;;5052585;28;20023;-65
2023/01/09 10:36:56;;;;;;;7.40;5.88;;;;;;;;;;5070661;28;20048;-66
2023/01/09 10:39:39;;;;;;;10.10;5.88;;;;;;;;;;5071403;28;20423;-60
2023/01/09 10:42:33;;;;;;;7.93;6.13;;;;;;;;;;5072386;28;20020;-62
2023/01/09 10:45:11;;;;;;;8.25;5.90;;;;;;;;;;5031968;28;20690;-64
2023/01/09 10:47:38;;;;;;;7.78;5.32;;;;;;;;;;5030188;28;20030;-60
2023/01/09 10:50:26;;;;;;;8.52;5.90;;;;;;;;;;5031058;28;20473;-58
2023/01/09 10:52:55;;;;;;;8.45;6.40;;;;;;;;;;5032208;28;20025;-58
2023/01/09 10:55:32;;;;;;;7.93;5.80;;;;;;;;;;5028479;28;20020;-56
2023/01/09 10:58:03;;;;;;;6.93;5.93;;;;;;;;;;5033515;28;20095;-60
2023/01/09 11:00:29;;;;;;;7.15;5.70;;;;;;;;;;5033015;28;20036;-65
2023/01/09 11:02:54;;;;;;;7.65;5.82;;;;;;;;;;5033120;28;20029;-61
2023/01/09 11:05:26;;;;;;;6.65;5.82;;;;;;;;;;5033257;28;20033;-58
2023/01/09 11:08:01;;;;;;;7.78;5.80;;;;;;;;;;5030702;28;20035;-58
2023/01/09 11:10:51;;;;;;;7.90;6.03;;;;;;;;;;5032915;28;20061;-59
2023/01/09 11:13:28;;;;;;;7.57;5.75;;;;;;;;;;5031737;28;20025;-59
2023/01/09 11:16:22;;;;;;;7.15;5.70;;;;;;;;;;5032887;28;20080;-59
2023/01/09 11:18:52;;;;;;;8.35;5.45;;;;;;;;;;5033086;28;20466;-60
2023/01/09 11:21:27;;;;;;;;;;;;;;;;;;5033337;28;20029;-58
2023/01/09 11:23:53;;;;;;;8.32;5.53;;;;;;;;;;5032677;28;20046;-58
2023/01/09 11:26:24;;;;;;;7.45;5.60;;;;;;;;;;5029618;28;20029;-59
2023/01/09 11:29:25;;;;;;;7.18;5.78;;;;;;;;;;5028134;28;20067;-62
2023/01/09 11:31:54;;;;;;;7.30;5.55;;;;;;;;;;5014332;28;20124;-67
2023/01/09 11:34:24;;;;;;;8.05;6.25;;;;;;;;;;5026213;28;20030;-65
2023/01/09 11:36:52;;;;;;;9.02;5.82;;;;;;;;;;5029190;28;20017;-58
2023/01/09 11:39:40;;;;;;;8.38;5.95;;;;;;;;;;5032294;28;20489;-60
2023/01/09 11:42:17;;;;;;;7.15;5.80;;;;;;;;;;5029261;28;20065;-59
2023/01/09 11:44:42;;;;;;;7.63;5.80;;;;;;;;;;5030981;28;20041;-59
2023/01/09 11:47:38;;;;;;;7.82;5.90;;;;;;;;;;5031738;28;20109;-59
2023/01/09 11:50:27;;;;;;;8.65;5.95;;;;;;;;;;5032381;28;20038;-59
2023/01/09 11:53:15;;;;;;;7.72;6.05;;;;;;;;;;5027838;28;20087;-59
2023/01/09 11:55:42;;;;;;;6.85;5.70;;;;;;;;;;5030718;28;20025;-63
2023/01/09 11:58:16;;;;;;;7.95;6.03;;;;;;;;;;5032303;28;20025;-59
2023/01/09 12:01:19;;;;;;;8.30;5.78;;;;;;;;;;5032136;28;20033;-59
2023/01/09 12:04:22;;;;;;;6.22;5.43;;;;;;;;;;5030465;28;20057;-61
2023/01/09 12:07:06;;;;;;;7.47;5.72;;;;;;;;;;5030841;28;20026;-64
2023/01/09 12:10:01;;;;;;;6.28;5.30;;;;;;;;;;5029285;28;20095;-59
2023/01/09 12:12:32;;;;;;;7.95;5.57;;;;;;;;;;5023052;28;20041;-58
2023/01/09 12:15:06;;;;;;;8.18;6.25;;;;;;;;;;5032232;28;20029;-58
2023/01/09 12:17:38;;;;;;;7.72;5.80;;;;;;;;;;5034000;28;20030;-59
2023/01/09 12:20:34;;;;;;;6.43;5.63;;;;;;;;;;5034964;28;20119;-60
2023/01/09 12:23:58;;;;;;;7.82;5.75;;;;;;;;;;5032121;28;20033;-65
2023/01/09 12:26:38;;;;;;;8.23;6.20;;;;;;;;;;4994242;28;20491;-60
2023/01/09 12:29:14;;;;;;;10.02;6.20;;;;;;;;;;4994262;28;20034;-64
2023/01/09 12:31:42;;;;;;;7.57;5.35;;;;;;;;;;5020263;28;20129;-59
2023/01/09 12:34:13;;;;;;;7.88;6.20;;;;;;;;;;5035761;28;20029;-60
2023/01/09 12:37:19;;;;;;;8.15;6.03;;;;;;;;;;5033291;28;20057;-62
2023/01/09 12:40:15;;;;;;;9.35;5.97;;;;;;;;;;5014090;28;20073;-64
2023/01/09 12:42:46;;;;;;;7.53;5.97;;;;;;;;;;5020516;28;20056;-59
2023/01/09 12:45:47;;;;;;;9.05;5.95;;;;;;;;;;5051067;28;20051;-60
2023/01/09 12:48:50;;;;;;;8.93;5.97;;;;;;;;;;5025277;28;20036;-59
2023/01/09 12:51:39;;;;;;;8.48;5.93;;;;;;;;;;5053712;28;20111;-58
2023/01/09 12:54:35;;;;;;;9.10;6.55;;;;;;;;;;5053877;28;20040;-58
2023/01/09 12:57:14;;;;;;;9.70;6.30;;;;;;;;;;5053798;28;20039;-59
2023/01/09 12:59:49;;;;;;;8.77;6.40;;;;;;;;;;5053600;28;20035;-59
2023/01/09 13:02:27;;;;;;;10.23;6.05;;;;;;;;;;5053711;28;20036;-60
2023/01/09 13:05:17;;;;;;;7.93;6.10;;;;;;;;;;5053865;28;20036;-59
2023/01/09 13:07:47;;;;;;;7.78;6.15;;;;;;;;;;5053723;28;20049;-62
2023/01/09 13:10:45;;;;;;;;;;;;;;;;;;5053583;28;20477;-58
2023/01/09 13:13:29;;;;;;;7.25;6.03;;;;;;;;;;5002333;28;19913;-57
2023/01/09 13:16:05;;;;;;;7.53;6.18;;;;;;;;;;5053379;28;20027;-61
2023/01/09 13:19:19;;;;;;;7.55;5.90;;;;;;;;;;5063875;28;20539;-66
2023/01/09 13:21:45;;;;;;;7.45;6.10;;;;;;;;;;5051940;28;20116;-59
2023/01/09 13:24:23;;;;;;;8.10;6.40;;;;;;;;;;5073253;28;20226;-58
2023/01/09 13:26:57;;;;;;;6.80;5.90;;;;;;;;;;5051636;28;20145;-60
2023/01/09 13:29:35;;;;;;;7.47;5.93;;;;;;;;;;5063647;28;20483;-60
2023/01/09 13:32:22;;;;;;;9.63;6.22;;;;;;;;;;5071606;28;20056;-57
2023/01/09 13:34:52;;;;;;;7.80;5.90;;;;;;;;;;5071063;28;20070;-59
2023/01/09 13:37:25;;;;;;;8.38;6.57;;;;;;;;;;5076338;28;20037;-60
2023/01/09 13:40:00;;;;;;;8.85;6.30;;;;;;;;;;5071397;28;20024;-63
2023/01/09 13:42:44;;;;;;;7.63;6.10;;;;;;;;;;5066019;28;20023;-58
2023/01/09 13:45:16;;;;;;;8.85;5.95;;;;;;;;;;5068182;28;20032;-57
2023/01/09 13:47:42;;;;;;;9.00;6.28;;;;;;;;;;5069844;28;20510;-59
2023/01/09 13:50:08;;;;;;;6.75;5.85;;;;;;;;;;5072629;28;20392;-58
2023/01/09 13:52:37;;;;;;;8.52;6.22;;;;;;;;;;5072312;28;20029;-59
2023/01/09 13:55:24;;;;;;;8.82;5.72;;;;;;;;;;5072703;28;20079;-63
2023/01/09 13:58:05;;;;;;;9.52;6.22;;;;;;;;;;5073010;28;20028;-56
2023/01/09 14:00:33;;;;;;;7.97;6.20;;;;;;;;;;5072336;28;20036;-58
2023/01/09 14:03:07;;;;;;;9.18;5.90;;;;;;;;;;5072597;28;20393;-65
2023/01/09 14:05:33;;;;;;;9.57;5.88;;;;;;;;;;5054681;28;20094;-62
2023/01/09 14:08:01;;;;;;;7.32;6.00;;;;;;;;;;5054525;28;20032;-57
2023/01/09 14:10:42;;;;;;;8.23;5.68;;;;;;;;;;5072437;28;20506;-55
2023/01/09 14:13:15;;;;;;;6.40;5.47;;;;;;;;;;5072735;28;20372;-57
2023/01/09 14:15:46;;;;;;;7.55;5.75;;;;;;;;;;5072210;28;20025;-56
2023/01/09 14:18:18;;;;;;;7.63;5.70;;;;;;;;;;5072526;28;20024;-56
2023/01/09 14:21:06;;;;;;;8.25;6.05;;;;;;;;;;5072095;28;20028;-59
2023/01/09 14:23:39;;;;;;;7.95;6.10;;;;;;;;;;5071592;28;20071;-62
2023/01/09 14:26:14;;;;;;;7.78;6.20;;;;;;;;;;5054098;28;20028;-58
2023/01/09 14:28:40;;;;;;;7.32;6.00;;;;;;;;;;5071804;28;20753;-58
2023/01/09 14:31:08;;;;;;;7.75;6.30;;;;;;;;;;5070892;28;20066;-58
2023/01/09 14:33:34;;;;;;;7.07;5.97;;;;;;;;;;5070487;28;20016;-59
2023/01/09 14:36:23;;;;;;;8.35;6.13;;;;;;;;;;5070719;28;20023;-61
2023/01/09 14:38:52;;;;;;;7.95;6.18;;;;;;;;;;5071419;28;20055;-61
2023/01/09 14:42:05;;;;;;;8.73;5.97;;;;;;;;;;5071913;28;20016;-57
2023/01/09 14:44:30;;;;;;;8.05;6.45;;;;;;;;;;5071088;28;20102;-57
2023/01/09 14:47:08;;;;;;;8.40;5.90;;;;;;;;;;5071695;28;20095;-58
2023/01/09 14:49:44;;;;;;;6.85;6.03;;;;;;;;;;5071748;28;20031;-55
2023/01/09 14:52:22;;;;;;;7.13;5.93;;;;;;;;;;5071602;28;20017;-59
2023/01/09 14:54:50;;;;;;;8.15;6.03;;;;;;;;;;5053956;28;20357;-58
2023/01/09 14:57:27;;;;;;;8.48;6.00;;;;;;;;;;5071629;28;20071;-59
2023/01/09 15:00:16;;;;;;;7.50;5.57;;;;;;;;;;5071255;28;20037;-63
2023/01/09 15:02:44;;;;;;;7.90;6.20;;;;;;;;;;5071307;28;20025;-64
2023/01/09 15:05:14;;;;;;;8.68;6.72;;;;;;;;;;5053436;28;20042;-58
2023/01/09 15:07:49;;;;;;;7.85;6.03;;;;;;;;;;5071366;28;20017;-58
2023/01/09 15:10:21;;;;;;;6.88;5.90;;;;;;;;;;5071351;28;20036;-58
2023/01/09 15:12:51;;;;;;;7.47;5.68;;;;;;;;;;5071413;28;20226;-58
2023/01/09 15:15:18;;;;;;;7.72;6.13;;;;;;;;;;5071283;28;20024;-59
2023/01/09 15:17:48;;;;;;;6.68;5.43;;;;;;;;;;5071363;28;20028;-58
2023/01/09 15:20:24;;;;;;;7.25;5.88;;;;;;;;;;5071196;28;20089;-62